Norwood, Minnesota
Current Conditions -  °F | °C
As of 11:54 AM on Saturday 20 Dec 2014 (Local Time) from KGYL Reporting Station
Overcast Overcast  
Wind Chill: 23°   Ceiling: 1100
Heat Index: 32°   Visibility: 10mi
Dew Point: 29°   Wind: 10mph
Humidity: 90%   Direction: 190°S
Pressure: 30.12"   Gusts: NA
Location:  44.77°N, 93.93°W
Report Text: KGYL 201754Z AUTO 19009KT 10SM OVC011 00/M02 A3012 RMK AO2 T10011016 10000 21002
Loading
Personal Weather Stations






























Interactive Weather Map New forecast layout! Learn more

10-Day Weather Forecast

Advertisements
Track Severe Weather on mobile